Mudcat — WCY8255 — position and weather

sailwx.info

Track history (hours):
 
Tides and Currents Weather Stations Pressure Air Temp Water Temp Dewpoint Dewpoint Depression Visibility Wind Speed Wind Dir Waves Ship Positions

Mudcat

Owner: TAURUS MARINE, SAN FRANCISCO, CA. More information available from US FCC via Universal Licensing System and Coast Guard Vessel Documentation Center.

Last reported at 2016-Dec-07 21:33 UTC. Time now 2016-Dec-08 02:09 UTC.
Position N 47°40' W 122°24'.

Length 22 m; draft 2 m.

Type: Tug. MMSI: 366969750.

Date/timePositionNaut miles runAvg speedWind from/ knotsBaromVisibWave heightAir tempDewpointWater temp
2016-Dec-07 21:33N 47°40' W 122°24'2 2.1
2016-Dec-07 20:33N 47°38' W 122°26'5 5.1
2016-Dec-07 19:33N 47°34' W 122°21'6 6.5
2016-Dec-07 18:33N 47°40' W 122°26'4 3.7
2016-Dec-07 17:33N 47°39' W 122°21'4 3.9
2016-Dec-07 16:33N 47°39' W 122°15'1 1.1
2016-Dec-07 15:34N 47°39' W 122°17'0 0.0
2016-Dec-07 14:32N 47°39' W 122°17'2 2.0
2016-Dec-07 13:33N 47°39' W 122°20'1 0.0
2016-Dec-07 00:16N 47°39' W 122°20'3 4.1
2016-Dec-06 23:33N 47°38' W 122°16'0 0.4
2016-Dec-06 22:33N 47°38' W 122°15'0 0.0
2016-Dec-06 21:33N 47°38' W 122°15'1 0.6
2016-Dec-06 20:33N 47°38' W 122°15'1 0.3
2016-Dec-06 18:33N 47°38' W 122°16'0 0.2
2016-Dec-06 17:33N 47°38' W 122°15'0 0.0
2016-Dec-06 16:33N 47°38' W 122°15'1 0.9
2016-Dec-06 15:33N 47°39' W 122°17'0 0.2
2016-Dec-06 14:31N 47°39' W 122°17'2 1.9
2016-Dec-06 13:33N 47°39' W 122°19'1 0.1
2016-Dec-05 22:24N 47°39' W 122°20'3 4.1
2016-Dec-05 21:33N 47°39' W 122°15'0 0.3
2016-Dec-05 20:33N 47°38' W 122°15'1 0.9
2016-Dec-05 19:33N 47°39' W 122°17'1 0.6
2016-Dec-05 18:33N 47°38' W 122°16'0 0.2
2016-Dec-05 17:33N 47°38' W 122°16'1 0.5
2016-Dec-05 16:32N 47°39' W 122°17'1 1.4
2016-Dec-05 15:32N 47°38' W 122°15'1 0.8
2016-Dec-05 14:33N 47°39' W 122°16'3 2.8
2016-Dec-05 13:34N 47°39' W 122°20'  
2016-Dec-02 20:26N 47°39' W 122°20'3 2.1
2016-Dec-02 19:13N 47°39' W 122°17'1 0.2
2016-Dec-02 16:31N 47°39' W 122°16'1 0.5
2016-Dec-02 15:33N 47°39' W 122°15'1 1.2
2016-Dec-02 14:33N 47°39' W 122°17'1 1.4
2016-Dec-02 13:33N 47°39' W 122°19'1 0.1
2016-Dec-01 22:33N 47°39' W 122°20'4 3.6
2016-Dec-01 21:33N 47°38' W 122°15'1 0.7
2016-Dec-01 20:33N 47°38' W 122°16'1 0.7
2016-Dec-01 19:33N 47°38' W 122°15'0 0.1
2016-Dec-01 18:33N 47°38' W 122°15'0 0.1
2016-Dec-01 17:33N 47°38' W 122°15'0 0.1
2016-Dec-01 16:33N 47°38' W 122°15'0 0.1
2016-Dec-01 15:33N 47°38' W 122°15'1 0.6
2016-Dec-01 14:32N 47°38' W 122°16'3 2.8
2016-Dec-01 13:33N 47°39' W 122°19'2 0.1
2016-Nov-30 23:33N 47°40' W 122°22'1 0.7
2016-Nov-30 22:33N 47°40' W 122°23'5 5.4
2016-Nov-30 21:33N 47°39' W 122°15'0 0.2
2016-Nov-30 20:33N 47°38' W 122°16'1 0.6
2016-Nov-30 19:33N 47°38' W 122°15'6 6.2
2016-Nov-30 18:33N 47°44' W 122°16'1 0.5
2016-Nov-30 17:32N 47°45' W 122°16'3 3.2
2016-Nov-30 16:33N 47°42' W 122°15'3 3.2
2016-Nov-30 15:33N 47°39' W 122°15'1 0.8
2016-Nov-30 14:33N 47°39' W 122°17'1 0.8
2016-Nov-30 13:33N 47°38' W 122°15'0 0.1
2016-Nov-30 12:34N 47°38' W 122°16'3 2.6
2016-Nov-30 11:33N 47°39' W 122°19'0 0.0
2016-Nov-30 00:33N 47°39' W 122°20'2 2.1
2016-Nov-29 23:33N 47°39' W 122°17'1 1.3
2016-Nov-29 22:33N 47°39' W 122°15'0 0.4
2016-Nov-29 21:34N 47°38' W 122°15'1 1.0
2016-Nov-29 20:33N 47°39' W 122°17'0 0.0
2016-Nov-29 19:33N 47°39' W 122°17'1 0.9
2016-Nov-29 18:33N 47°38' W 122°15'0 0.3
2016-Nov-29 17:34N 47°39' W 122°16'1 0.6
2016-Nov-29 16:30N 47°39' W 122°17'1 1.0
2016-Nov-29 15:33N 47°39' W 122°15'6 5.7
2016-Nov-29 14:34N 47°44' W 122°16'6 5.6
2016-Nov-29 13:33N 47°39' W 122°19'1 0.1
2016-Nov-28 22:32N 47°39' W 122°18'1 1.5
2016-Nov-28 21:33N 47°39' W 122°16'1 0.5
2016-Nov-28 20:33N 47°39' W 122°15'1 0.6
2016-Nov-28 19:33N 47°39' W 122°16'0 0.4
2016-Nov-28 18:33N 47°39' W 122°15'0 0.0
2016-Nov-28 17:33N 47°39' W 122°15'0 0.2
2016-Nov-28 16:33N 47°39' W 122°15'0 0.4
2016-Nov-28 15:33N 47°38' W 122°15'0 0.5
2016-Nov-28 14:33N 47°39' W 122°15'1 1.5
2016-Nov-28 13:33N 47°40' W 122°15'5 5.4
2016-Nov-28 12:33N 47°45' W 122°15'1 0.8
2016-Nov-28 11:33N 47°45' W 122°16'4 4.5
2016-Nov-28 10:33N 47°40' W 122°15'4 3.7
2016-Nov-28 09:33N 47°39' W 122°20'  
Track history (hours):
 
Tides and Currents Weather Stations Pressure Air Temp Water Temp Dewpoint Dewpoint Depression Visibility Wind Speed Wind Dir Waves Ship Positions

Mudcat

Owner: TAURUS MARINE, SAN FRANCISCO, CA. More information available from US FCC via Universal Licensing System and Coast Guard Vessel Documentation Center.

Last reported at 2016-Dec-07 21:33 UTC. Time now 2016-Dec-08 02:09 UTC.
Position N 47°40' W 122°24'.

Length 22 m; draft 2 m.

Type: Tug. MMSI: 366969750.

Date/timePositionNaut miles runAvg speedWind from/ knotsBaromVisibWave heightAir tempDewpointWater temp
2016-Dec-07 21:33N 47°40' W 122°24'2 2.1
2016-Dec-07 20:33N 47°38' W 122°26'5 5.1
2016-Dec-07 19:33N 47°34' W 122°21'6 6.5
2016-Dec-07 18:33N 47°40' W 122°26'4 3.7
2016-Dec-07 17:33N 47°39' W 122°21'4 3.9
2016-Dec-07 16:33N 47°39' W 122°15'1 1.1
2016-Dec-07 15:34N 47°39' W 122°17'0 0.0
2016-Dec-07 14:32N 47°39' W 122°17'2 2.0
2016-Dec-07 13:33N 47°39' W 122°20'1 0.0
2016-Dec-07 00:16N 47°39' W 122°20'3 4.1
2016-Dec-06 23:33N 47°38' W 122°16'0 0.4
2016-Dec-06 22:33N 47°38' W 122°15'0 0.0
2016-Dec-06 21:33N 47°38' W 122°15'1 0.6
2016-Dec-06 20:33N 47°38' W 122°15'1 0.3
2016-Dec-06 18:33N 47°38' W 122°16'0 0.2
2016-Dec-06 17:33N 47°38' W 122°15'0 0.0
2016-Dec-06 16:33N 47°38' W 122°15'1 0.9
2016-Dec-06 15:33N 47°39' W 122°17'0 0.2
2016-Dec-06 14:31N 47°39' W 122°17'2 1.9
2016-Dec-06 13:33N 47°39' W 122°19'1 0.1
2016-Dec-05 22:24N 47°39' W 122°20'3 4.1
2016-Dec-05 21:33N 47°39' W 122°15'0 0.3
2016-Dec-05 20:33N 47°38' W 122°15'1 0.9
2016-Dec-05 19:33N 47°39' W 122°17'1 0.6
2016-Dec-05 18:33N 47°38' W 122°16'0 0.2
2016-Dec-05 17:33N 47°38' W 122°16'1 0.5
2016-Dec-05 16:32N 47°39' W 122°17'1 1.4
2016-Dec-05 15:32N 47°38' W 122°15'1 0.8
2016-Dec-05 14:33N 47°39' W 122°16'3 2.8
2016-Dec-05 13:34N 47°39' W 122°20'  
2016-Dec-02 20:26N 47°39' W 122°20'3 2.1
2016-Dec-02 19:13N 47°39' W 122°17'1 0.2
2016-Dec-02 16:31N 47°39' W 122°16'1 0.5
2016-Dec-02 15:33N 47°39' W 122°15'1 1.2
2016-Dec-02 14:33N 47°39' W 122°17'1 1.4
2016-Dec-02 13:33N 47°39' W 122°19'1 0.1
2016-Dec-01 22:33N 47°39' W 122°20'4 3.6
2016-Dec-01 21:33N 47°38' W 122°15'1 0.7
2016-Dec-01 20:33N 47°38' W 122°16'1 0.7
2016-Dec-01 19:33N 47°38' W 122°15'0 0.1
2016-Dec-01 18:33N 47°38' W 122°15'0 0.1
2016-Dec-01 17:33N 47°38' W 122°15'0 0.1
2016-Dec-01 16:33N 47°38' W 122°15'0 0.1
2016-Dec-01 15:33N 47°38' W 122°15'1 0.6
2016-Dec-01 14:32N 47°38' W 122°16'3 2.8
2016-Dec-01 13:33N 47°39' W 122°19'2 0.1
2016-Nov-30 23:33N 47°40' W 122°22'1 0.7
2016-Nov-30 22:33N 47°40' W 122°23'5 5.4
2016-Nov-30 21:33N 47°39' W 122°15'0 0.2
2016-Nov-30 20:33N 47°38' W 122°16'1 0.6
2016-Nov-30 19:33N 47°38' W 122°15'6 6.2
2016-Nov-30 18:33N 47°44' W 122°16'1 0.5
2016-Nov-30 17:32N 47°45' W 122°16'3 3.2
2016-Nov-30 16:33N 47°42' W 122°15'3 3.2
2016-Nov-30 15:33N 47°39' W 122°15'1 0.8
2016-Nov-30 14:33N 47°39' W 122°17'1 0.8
2016-Nov-30 13:33N 47°38' W 122°15'0 0.1
2016-Nov-30 12:34N 47°38' W 122°16'3 2.6
2016-Nov-30 11:33N 47°39' W 122°19'0 0.0
2016-Nov-30 00:33N 47°39' W 122°20'2 2.1
2016-Nov-29 23:33N 47°39' W 122°17'1 1.3
2016-Nov-29 22:33N 47°39' W 122°15'0 0.4
2016-Nov-29 21:34N 47°38' W 122°15'1 1.0
2016-Nov-29 20:33N 47°39' W 122°17'0 0.0
2016-Nov-29 19:33N 47°39' W 122°17'1 0.9
2016-Nov-29 18:33N 47°38' W 122°15'0 0.3
2016-Nov-29 17:34N 47°39' W 122°16'1 0.6
2016-Nov-29 16:30N 47°39' W 122°17'1 1.0
2016-Nov-29 15:33N 47°39' W 122°15'6 5.7
2016-Nov-29 14:34N 47°44' W 122°16'6 5.6
2016-Nov-29 13:33N 47°39' W 122°19'1 0.1
2016-Nov-28 22:32N 47°39' W 122°18'1 1.5
2016-Nov-28 21:33N 47°39' W 122°16'1 0.5
2016-Nov-28 20:33N 47°39' W 122°15'1 0.6
2016-Nov-28 19:33N 47°39' W 122°16'0 0.4
2016-Nov-28 18:33N 47°39' W 122°15'0 0.0
2016-Nov-28 17:33N 47°39' W 122°15'0 0.2
2016-Nov-28 16:33N 47°39' W 122°15'0 0.4
2016-Nov-28 15:33N 47°38' W 122°15'0 0.5
2016-Nov-28 14:33N 47°39' W 122°15'1 1.5
2016-Nov-28 13:33N 47°40' W 122°15'5 5.4
2016-Nov-28 12:33N 47°45' W 122°15'1 0.8
2016-Nov-28 11:33N 47°45' W 122°16'4 4.5
2016-Nov-28 10:33N 47°40' W 122°15'4 3.7
2016-Nov-28 09:33N 47°39' W 122°20'  

Dump ship's entire track history